<?xml version="1.0" encoding="UTF-8" standalone="no" ?>
<gpx xmlns="http://www.topografix.com/GPX/1/1" xmlns:xsi="http://www.w3.org/2001/XMLSchema-instance" xsi:schemaLocation="http://www.topografix.com/GPX/1/1 http://www.topografix.com/GPX/1/1/gpx.xsd" version="1.1" creator="VisuGPX - https://www.visugpx.com">
  <metadata>
    <name>Col d'Emy</name>
    <desc><![CDATA[Le Karellis, Départ Albanne, monter dans le vallon "Les Fonds".]]></desc>
  </metadata>
  <trk>
    <name><![CDATA[col emy]]></name>
    <desc><![CDATA[<h1>OruxMaps</h1><br /><hr align="center" width="480" style="height: 2px; width: 517px"/><h2>Nom: col emy</h2><br /><p>Temps de départ: 12/23/2013 09:12</p><p>Temps d'arrivée: 12/23/2013 13:21</p><p>Distance: 11,5 km (04:08)</p><p>Temps déplacement: 02:30</p><p>Vitesse moyenne: 2,8 km/h</p><p>Vitesse moyenne: 4,6 km/h</p><p>Vitess Max.: 45,9 km/h</p><p>Altitude minimale: 1611 m</p><p>Altitude maximale: 2694 m</p><p>Vitesse d'élévation: 364,7 m/h</p><p>Vitesse de descente: -1103,9 m/h</p><p>Gain Altitude: 1108 m</p><p>Perte Altitude: -1073 m</p><p>Temps d'élévation: 03:02</p><p>Temps de descente: 00:58</p><hr align="center" width="480" style="height: 2px; width: 517px"/>]]></desc>
    <trkseg>
      <trkpt lat="45.20709" lon="6.42043">
        <ele>1611.95</ele>
        <time>2013-12-23T08:12:42Z</time>
      </trkpt>
      <trkpt lat="45.2069" lon="6.42045">
        <ele>1620.94</ele>
        <time>2013-12-23T08:17:32Z</time>
      </trkpt>
      <trkpt lat="45.20672" lon="6.42038">
        <ele>1621.24</ele>
        <time>2013-12-23T08:17:47Z</time>
      </trkpt>
      <trkpt lat="45.20657" lon="6.42023">
        <ele>1625.18</ele>
        <time>2013-12-23T08:18:00Z</time>
      </trkpt>
      <trkpt lat="45.20642" lon="6.42008">
        <ele>1628.03</ele>
        <time>2013-12-23T08:18:14Z</time>
      </trkpt>
      <trkpt lat="45.20627" lon="6.41993">
        <ele>1626.22</ele>
        <time>2013-12-23T08:18:29Z</time>
      </trkpt>
      <trkpt lat="45.20614" lon="6.41974">
        <ele>1624.19</ele>
        <time>2013-12-23T08:18:43Z</time>
      </trkpt>
      <trkpt lat="45.206" lon="6.41956">
        <ele>1623.97</ele>
        <time>2013-12-23T08:18:59Z</time>
      </trkpt>
      <trkpt lat="45.20585" lon="6.41941">
        <ele>1627.65</ele>
        <time>2013-12-23T08:19:12Z</time>
      </trkpt>
      <trkpt lat="45.20571" lon="6.41924">
        <ele>1628.97</ele>
        <time>2013-12-23T08:19:28Z</time>
      </trkpt>
      <trkpt lat="45.20564" lon="6.41898">
        <ele>1624.19</ele>
        <time>2013-12-23T08:19:50Z</time>
      </trkpt>
      <trkpt lat="45.20564" lon="6.41872">
        <ele>1618.09</ele>
        <time>2013-12-23T08:20:14Z</time>
      </trkpt>
      <trkpt lat="45.20558" lon="6.41848">
        <ele>1624.11</ele>
        <time>2013-12-23T08:22:45Z</time>
      </trkpt>
      <trkpt lat="45.20546" lon="6.41828">
        <ele>1629.67</ele>
        <time>2013-12-23T08:24:21Z</time>
      </trkpt>
      <trkpt lat="45.20539" lon="6.41804">
        <ele>1633.05</ele>
        <time>2013-12-23T08:24:46Z</time>
      </trkpt>
      <trkpt lat="45.20531" lon="6.41781">
        <ele>1639.87</ele>
        <time>2013-12-23T08:25:12Z</time>
      </trkpt>
      <trkpt lat="45.2052" lon="6.41759">
        <ele>1642.97</ele>
        <time>2013-12-23T08:25:43Z</time>
      </trkpt>
      <trkpt lat="45.20508" lon="6.41741">
        <ele>1650.26</ele>
        <time>2013-12-23T08:26:17Z</time>
      </trkpt>
      <trkpt lat="45.20498" lon="6.41718">
        <ele>1657.97</ele>
        <time>2013-12-23T08:26:45Z</time>
      </trkpt>
      <trkpt lat="45.20488" lon="6.41697">
        <ele>1661.32</ele>
        <time>2013-12-23T08:27:18Z</time>
      </trkpt>
      <trkpt lat="45.20499" lon="6.41675">
        <ele>1664.64</ele>
        <time>2013-12-23T08:28:03Z</time>
      </trkpt>
      <trkpt lat="45.20495" lon="6.4165">
        <ele>1676.77</ele>
        <time>2013-12-23T08:28:51Z</time>
      </trkpt>
      <trkpt lat="45.20485" lon="6.41629">
        <ele>1681.13</ele>
        <time>2013-12-23T08:29:27Z</time>
      </trkpt>
      <trkpt lat="45.20493" lon="6.41605">
        <ele>1681.35</ele>
        <time>2013-12-23T08:30:10Z</time>
      </trkpt>
      <trkpt lat="45.20506" lon="6.41587">
        <ele>1684.81</ele>
        <time>2013-12-23T08:30:43Z</time>
      </trkpt>
      <trkpt lat="45.20516" lon="6.41565">
        <ele>1693.73</ele>
        <time>2013-12-23T08:31:13Z</time>
      </trkpt>
      <trkpt lat="45.20517" lon="6.41539">
        <ele>1699.37</ele>
        <time>2013-12-23T08:31:46Z</time>
      </trkpt>
      <trkpt lat="45.2052" lon="6.41514">
        <ele>1703.31</ele>
        <time>2013-12-23T08:32:22Z</time>
      </trkpt>
      <trkpt lat="45.20531" lon="6.41493">
        <ele>1708.14</ele>
        <time>2013-12-23T08:32:48Z</time>
      </trkpt>
      <trkpt lat="45.20546" lon="6.41479">
        <ele>1728.04</ele>
        <time>2013-12-23T08:33:16Z</time>
      </trkpt>
      <trkpt lat="45.20563" lon="6.4147">
        <ele>1727.77</ele>
        <time>2013-12-23T08:33:45Z</time>
      </trkpt>
      <trkpt lat="45.2057" lon="6.41446">
        <ele>1716.83</ele>
        <time>2013-12-23T08:35:16Z</time>
      </trkpt>
      <trkpt lat="45.20554" lon="6.41432">
        <ele>1733.94</ele>
        <time>2013-12-23T08:37:31Z</time>
      </trkpt>
      <trkpt lat="45.20539" lon="6.41417">
        <ele>1738.16</ele>
        <time>2013-12-23T08:37:57Z</time>
      </trkpt>
      <trkpt lat="45.20523" lon="6.41402">
        <ele>1744.72</ele>
        <time>2013-12-23T08:38:24Z</time>
      </trkpt>
      <trkpt lat="45.20508" lon="6.41389">
        <ele>1754.67</ele>
        <time>2013-12-23T08:39:00Z</time>
      </trkpt>
      <trkpt lat="45.20494" lon="6.41373">
        <ele>1749.3</ele>
        <time>2013-12-23T08:40:00Z</time>
      </trkpt>
      <trkpt lat="45.20478" lon="6.41359">
        <ele>1758.56</ele>
        <time>2013-12-23T08:41:14Z</time>
      </trkpt>
      <trkpt lat="45.2046" lon="6.4135">
        <ele>1764.69</ele>
        <time>2013-12-23T08:41:32Z</time>
      </trkpt>
      <trkpt lat="45.20444" lon="6.41339">
        <ele>1771.45</ele>
        <time>2013-12-23T08:41:49Z</time>
      </trkpt>
      <trkpt lat="45.20427" lon="6.41329">
        <ele>1774.69</ele>
        <time>2013-12-23T08:42:08Z</time>
      </trkpt>
      <trkpt lat="45.20413" lon="6.41312">
        <ele>1778.56</ele>
        <time>2013-12-23T08:42:28Z</time>
      </trkpt>
      <trkpt lat="45.20398" lon="6.41298">
        <ele>1785.43</ele>
        <time>2013-12-23T08:42:46Z</time>
      </trkpt>
      <trkpt lat="45.20381" lon="6.41289">
        <ele>1782.98</ele>
        <time>2013-12-23T08:43:08Z</time>
      </trkpt>
      <trkpt lat="45.20364" lon="6.41276">
        <ele>1792.64</ele>
        <time>2013-12-23T08:43:32Z</time>
      </trkpt>
      <trkpt lat="45.20353" lon="6.41256">
        <ele>1783.47</ele>
        <time>2013-12-23T08:43:54Z</time>
      </trkpt>
      <trkpt lat="45.20341" lon="6.41235">
        <ele>1787.33</ele>
        <time>2013-12-23T08:44:16Z</time>
      </trkpt>
      <trkpt lat="45.20328" lon="6.41216">
        <ele>1787.67</ele>
        <time>2013-12-23T08:44:36Z</time>
      </trkpt>
      <trkpt lat="45.20316" lon="6.41197">
        <ele>1795.26</ele>
        <time>2013-12-23T08:44:49Z</time>
      </trkpt>
      <trkpt lat="45.20298" lon="6.41189">
        <ele>1788.08</ele>
        <time>2013-12-23T08:45:13Z</time>
      </trkpt>
      <trkpt lat="45.20281" lon="6.4118">
        <ele>1796.18</ele>
        <time>2013-12-23T08:45:28Z</time>
      </trkpt>
      <trkpt lat="45.20263" lon="6.41174">
        <ele>1794.29</ele>
        <time>2013-12-23T08:45:51Z</time>
      </trkpt>
      <trkpt lat="45.20246" lon="6.41161">
        <ele>1799.68</ele>
        <time>2013-12-23T08:46:09Z</time>
      </trkpt>
      <trkpt lat="45.20231" lon="6.41146">
        <ele>1803.28</ele>
        <time>2013-12-23T08:46:24Z</time>
      </trkpt>
      <trkpt lat="45.20217" lon="6.41127">
        <ele>1802.26</ele>
        <time>2013-12-23T08:46:45Z</time>
      </trkpt>
      <trkpt lat="45.202" lon="6.41118">
        <ele>1802.75</ele>
        <time>2013-12-23T08:47:05Z</time>
      </trkpt>
      <trkpt lat="45.20181" lon="6.41115">
        <ele>1803.55</ele>
        <time>2013-12-23T08:47:24Z</time>
      </trkpt>
      <trkpt lat="45.20163" lon="6.41113">
        <ele>1802.74</ele>
        <time>2013-12-23T08:47:43Z</time>
      </trkpt>
      <trkpt lat="45.20144" lon="6.41114">
        <ele>1798.67</ele>
        <time>2013-12-23T08:48:08Z</time>
      </trkpt>
      <trkpt lat="45.20126" lon="6.41111">
        <ele>1800.79</ele>
        <time>2013-12-23T08:48:27Z</time>
      </trkpt>
      <trkpt lat="45.20107" lon="6.41107">
        <ele>1800.56</ele>
        <time>2013-12-23T08:48:48Z</time>
      </trkpt>
      <trkpt lat="45.2009" lon="6.41097">
        <ele>1802.91</ele>
        <time>2013-12-23T08:49:05Z</time>
      </trkpt>
      <trkpt lat="45.20072" lon="6.41096">
        <ele>1802.08</ele>
        <time>2013-12-23T08:49:23Z</time>
      </trkpt>
      <trkpt lat="45.20053" lon="6.41096">
        <ele>1800.72</ele>
        <time>2013-12-23T08:49:42Z</time>
      </trkpt>
      <trkpt lat="45.20038" lon="6.4111">
        <ele>1803.64</ele>
        <time>2013-12-23T08:50:01Z</time>
      </trkpt>
      <trkpt lat="45.20021" lon="6.41122">
        <ele>1798.23</ele>
        <time>2013-12-23T08:50:22Z</time>
      </trkpt>
      <trkpt lat="45.2001" lon="6.41144">
        <ele>1798.01</ele>
        <time>2013-12-23T08:50:44Z</time>
      </trkpt>
      <trkpt lat="45.19999" lon="6.41165">
        <ele>1802.68</ele>
        <time>2013-12-23T08:51:01Z</time>
      </trkpt>
      <trkpt lat="45.19981" lon="6.41165">
        <ele>1805.82</ele>
        <time>2013-12-23T08:51:17Z</time>
      </trkpt>
      <trkpt lat="45.1997" lon="6.41144">
        <ele>1804.85</ele>
        <time>2013-12-23T08:51:37Z</time>
      </trkpt>
      <trkpt lat="45.19957" lon="6.41127">
        <ele>1809.26</ele>
        <time>2013-12-23T08:51:53Z</time>
      </trkpt>
      <trkpt lat="45.1994" lon="6.41116">
        <ele>1810.64</ele>
        <time>2013-12-23T08:52:10Z</time>
      </trkpt>
      <trkpt lat="45.19922" lon="6.41112">
        <ele>1812.71</ele>
        <time>2013-12-23T08:52:27Z</time>
      </trkpt>
      <trkpt lat="45.19906" lon="6.41099">
        <ele>1813.58</ele>
        <time>2013-12-23T08:52:45Z</time>
      </trkpt>
      <trkpt lat="45.19891" lon="6.41083">
        <ele>1807.8</ele>
        <time>2013-12-23T08:53:06Z</time>
      </trkpt>
      <trkpt lat="45.19877" lon="6.41067">
        <ele>1814.24</ele>
        <time>2013-12-23T08:53:22Z</time>
      </trkpt>
      <trkpt lat="45.19863" lon="6.41052">
        <ele>1823.71</ele>
        <time>2013-12-23T08:53:33Z</time>
      </trkpt>
      <trkpt lat="45.19854" lon="6.41029">
        <ele>1822.14</ele>
        <time>2013-12-23T08:54:01Z</time>
      </trkpt>
      <trkpt lat="45.19843" lon="6.41009">
        <ele>1822.77</ele>
        <time>2013-12-23T08:54:25Z</time>
      </trkpt>
      <trkpt lat="45.19828" lon="6.40993">
        <ele>1822.1</ele>
        <time>2013-12-23T08:54:46Z</time>
      </trkpt>
      <trkpt lat="45.1981" lon="6.40982">
        <ele>1824.29</ele>
        <time>2013-12-23T08:55:04Z</time>
      </trkpt>
      <trkpt lat="45.19791" lon="6.40963">
        <ele>1832.64</ele>
        <time>2013-12-23T08:55:21Z</time>
      </trkpt>
      <trkpt lat="45.19778" lon="6.40944">
        <ele>1828.46</ele>
        <time>2013-12-23T08:55:45Z</time>
      </trkpt>
      <trkpt lat="45.19769" lon="6.40922">
        <ele>1816.93</ele>
        <time>2013-12-23T08:56:46Z</time>
      </trkpt>
      <trkpt lat="45.19761" lon="6.40899">
        <ele>1817.52</ele>
        <time>2013-12-23T08:57:04Z</time>
      </trkpt>
      <trkpt lat="45.19753" lon="6.40875">
        <ele>1836.98</ele>
        <time>2013-12-23T08:57:22Z</time>
      </trkpt>
      <trkpt lat="45.19742" lon="6.40855">
        <ele>1834.89</ele>
        <time>2013-12-23T08:57:32Z</time>
      </trkpt>
      <trkpt lat="45.19732" lon="6.40833">
        <ele>1825.32</ele>
        <time>2013-12-23T08:57:55Z</time>
      </trkpt>
      <trkpt lat="45.19726" lon="6.40808">
        <ele>1837.29</ele>
        <time>2013-12-23T08:58:22Z</time>
      </trkpt>
      <trkpt lat="45.19718" lon="6.40784">
        <ele>1842.59</ele>
        <time>2013-12-23T08:58:38Z</time>
      </trkpt>
      <trkpt lat="45.197" lon="6.40759">
        <ele>1859.68</ele>
        <time>2013-12-23T08:59:08Z</time>
      </trkpt>
      <trkpt lat="45.19687" lon="6.40739">
        <ele>1845.64</ele>
        <time>2013-12-23T08:59:22Z</time>
      </trkpt>
      <trkpt lat="45.19679" lon="6.40716">
        <ele>1835.21</ele>
        <time>2013-12-23T08:59:40Z</time>
      </trkpt>
      <trkpt lat="45.19663" lon="6.40699">
        <ele>1839.54</ele>
        <time>2013-12-23T09:00:02Z</time>
      </trkpt>
      <trkpt lat="45.19649" lon="6.40682">
        <ele>1826.98</ele>
        <time>2013-12-23T09:00:19Z</time>
      </trkpt>
      <trkpt lat="45.19641" lon="6.40659">
        <ele>1830.22</ele>
        <time>2013-12-23T09:00:40Z</time>
      </trkpt>
      <trkpt lat="45.19639" lon="6.40633">
        <ele>1832.97</ele>
        <time>2013-12-23T09:00:59Z</time>
      </trkpt>
      <trkpt lat="45.19633" lon="6.40608">
        <ele>1837.83</ele>
        <time>2013-12-23T09:01:29Z</time>
      </trkpt>
      <trkpt lat="45.19615" lon="6.40604">
        <ele>1833.96</ele>
        <time>2013-12-23T09:04:54Z</time>
      </trkpt>
      <trkpt lat="45.19597" lon="6.40597">
        <ele>1831.73</ele>
        <time>2013-12-23T09:05:04Z</time>
      </trkpt>
      <trkpt lat="45.19615" lon="6.40598">
        <ele>1830.65</ele>
        <time>2013-12-23T09:05:54Z</time>
      </trkpt>
      <trkpt lat="45.19632" lon="6.40607">
        <ele>1831.33</ele>
        <time>2013-12-23T09:06:17Z</time>
      </trkpt>
      <trkpt lat="45.19637" lon="6.40582">
        <ele>1842.54</ele>
        <time>2013-12-23T09:07:00Z</time>
      </trkpt>
      <trkpt lat="45.19623" lon="6.40564">
        <ele>1839.42</ele>
        <time>2013-12-23T09:07:20Z</time>
      </trkpt>
      <trkpt lat="45.19617" lon="6.40539">
        <ele>1841.77</ele>
        <time>2013-12-23T09:07:43Z</time>
      </trkpt>
      <trkpt lat="45.19613" lon="6.40514">
        <ele>1850.53</ele>
        <time>2013-12-23T09:08:10Z</time>
      </trkpt>
      <trkpt lat="45.19607" lon="6.40489">
        <ele>1848.43</ele>
        <time>2013-12-23T09:08:40Z</time>
      </trkpt>
      <trkpt lat="45.19605" lon="6.40464">
        <ele>1856.21</ele>
        <time>2013-12-23T09:09:06Z</time>
      </trkpt>
      <trkpt lat="45.19596" lon="6.4044">
        <ele>1854.22</ele>
        <time>2013-12-23T09:10:14Z</time>
      </trkpt>
      <trkpt lat="45.19595" lon="6.40414">
        <ele>1862.3</ele>
        <time>2013-12-23T09:10:37Z</time>
      </trkpt>
      <trkpt lat="45.19592" lon="6.40388">
        <ele>1865.19</ele>
        <time>2013-12-23T09:11:05Z</time>
      </trkpt>
      <trkpt lat="45.19587" lon="6.40363">
        <ele>1862.9</ele>
        <time>2013-12-23T09:11:42Z</time>
      </trkpt>
      <trkpt lat="45.19584" lon="6.40338">
        <ele>1872.91</ele>
        <time>2013-12-23T09:12:12Z</time>
      </trkpt>
      <trkpt lat="45.1958" lon="6.40313">
        <ele>1879.07</ele>
        <time>2013-12-23T09:12:39Z</time>
      </trkpt>
      <trkpt lat="45.1958" lon="6.40287">
        <ele>1881.6</ele>
        <time>2013-12-23T09:13:09Z</time>
      </trkpt>
      <trkpt lat="45.19574" lon="6.40263">
        <ele>1886.51</ele>
        <time>2013-12-23T09:13:35Z</time>
      </trkpt>
      <trkpt lat="45.19571" lon="6.40237">
        <ele>1887.9</ele>
        <time>2013-12-23T09:14:15Z</time>
      </trkpt>
      <trkpt lat="45.19565" lon="6.40213">
        <ele>1891.81</ele>
        <time>2013-12-23T09:14:38Z</time>
      </trkpt>
      <trkpt lat="45.1956" lon="6.40187">
        <ele>1898.44</ele>
        <time>2013-12-23T09:15:01Z</time>
      </trkpt>
      <trkpt lat="45.19557" lon="6.40162">
        <ele>1897.51</ele>
        <time>2013-12-23T09:15:26Z</time>
      </trkpt>
      <trkpt lat="45.19553" lon="6.40137">
        <ele>1900.08</ele>
        <time>2013-12-23T09:15:49Z</time>
      </trkpt>
      <trkpt lat="45.19547" lon="6.40112">
        <ele>1905.2</ele>
        <time>2013-12-23T09:16:31Z</time>
      </trkpt>
      <trkpt lat="45.19541" lon="6.40087">
        <ele>1906.83</ele>
        <time>2013-12-23T09:17:08Z</time>
      </trkpt>
      <trkpt lat="45.19535" lon="6.40063">
        <ele>1916.88</ele>
        <time>2013-12-23T09:17:36Z</time>
      </trkpt>
      <trkpt lat="45.19529" lon="6.40039">
        <ele>1916.14</ele>
        <time>2013-12-23T09:18:13Z</time>
      </trkpt>
      <trkpt lat="45.19523" lon="6.40015">
        <ele>1918.28</ele>
        <time>2013-12-23T09:18:43Z</time>
      </trkpt>
      <trkpt lat="45.19515" lon="6.3999">
        <ele>1930.49</ele>
        <time>2013-12-23T09:19:17Z</time>
      </trkpt>
      <trkpt lat="45.19509" lon="6.39965">
        <ele>1927.01</ele>
        <time>2013-12-23T09:19:45Z</time>
      </trkpt>
      <trkpt lat="45.19502" lon="6.39941">
        <ele>1932.18</ele>
        <time>2013-12-23T09:20:07Z</time>
      </trkpt>
      <trkpt lat="45.19496" lon="6.39918">
        <ele>1932.25</ele>
        <time>2013-12-23T09:20:34Z</time>
      </trkpt>
      <trkpt lat="45.1948" lon="6.39904">
        <ele>1934.26</ele>
        <time>2013-12-23T09:21:00Z</time>
      </trkpt>
      <trkpt lat="45.19467" lon="6.39885">
        <ele>1942.09</ele>
        <time>2013-12-23T09:21:23Z</time>
      </trkpt>
      <trkpt lat="45.19454" lon="6.39866">
        <ele>1943.38</ele>
        <time>2013-12-23T09:21:45Z</time>
      </trkpt>
      <trkpt lat="45.19439" lon="6.39852">
        <ele>1944.8</ele>
        <time>2013-12-23T09:22:15Z</time>
      </trkpt>
      <trkpt lat="45.19427" lon="6.39832">
        <ele>1951.66</ele>
        <time>2013-12-23T09:22:39Z</time>
      </trkpt>
      <trkpt lat="45.19413" lon="6.39815">
        <ele>1950.81</ele>
        <time>2013-12-23T09:23:10Z</time>
      </trkpt>
      <trkpt lat="45.19395" lon="6.3981">
        <ele>1950.18</ele>
        <time>2013-12-23T09:23:37Z</time>
      </trkpt>
      <trkpt lat="45.1938" lon="6.39824">
        <ele>1955.27</ele>
        <time>2013-12-23T09:24:00Z</time>
      </trkpt>
      <trkpt lat="45.19362" lon="6.39821">
        <ele>1959.5</ele>
        <time>2013-12-23T09:24:26Z</time>
      </trkpt>
      <trkpt lat="45.19344" lon="6.39815">
        <ele>1960.18</ele>
        <time>2013-12-23T09:24:59Z</time>
      </trkpt>
      <trkpt lat="45.19344" lon="6.39788">
        <ele>1967.58</ele>
        <time>2013-12-23T09:25:32Z</time>
      </trkpt>
      <trkpt lat="45.19344" lon="6.39762">
        <ele>1969.88</ele>
        <time>2013-12-23T09:26:01Z</time>
      </trkpt>
      <trkpt lat="45.19341" lon="6.39737">
        <ele>1966.26</ele>
        <time>2013-12-23T09:26:35Z</time>
      </trkpt>
      <trkpt lat="45.19341" lon="6.39711">
        <ele>1974.43</ele>
        <time>2013-12-23T09:27:02Z</time>
      </trkpt>
      <trkpt lat="45.19342" lon="6.39685">
        <ele>1977.39</ele>
        <time>2013-12-23T09:27:30Z</time>
      </trkpt>
      <trkpt lat="45.19346" lon="6.3966">
        <ele>1982.5</ele>
        <time>2013-12-23T09:27:57Z</time>
      </trkpt>
      <trkpt lat="45.19351" lon="6.39635">
        <ele>1982.17</ele>
        <time>2013-12-23T09:28:21Z</time>
      </trkpt>
      <trkpt lat="45.19367" lon="6.39623">
        <ele>1987.89</ele>
        <time>2013-12-23T09:28:46Z</time>
      </trkpt>
      <trkpt lat="45.19385" lon="6.39622">
        <ele>1981.52</ele>
        <time>2013-12-23T09:29:29Z</time>
      </trkpt>
      <trkpt lat="45.19389" lon="6.39596">
        <ele>1997.75</ele>
        <time>2013-12-23T09:30:48Z</time>
      </trkpt>
      <trkpt lat="45.19381" lon="6.39572">
        <ele>2007.49</ele>
        <time>2013-12-23T09:31:15Z</time>
      </trkpt>
      <trkpt lat="45.19374" lon="6.39548">
        <ele>2007.89</ele>
        <time>2013-12-23T09:31:50Z</time>
      </trkpt>
      <trkpt lat="45.19366" lon="6.39524">
        <ele>2010.93</ele>
        <time>2013-12-23T09:32:21Z</time>
      </trkpt>
      <trkpt lat="45.19359" lon="6.39499">
        <ele>2014.46</ele>
        <time>2013-12-23T09:32:50Z</time>
      </trkpt>
      <trkpt lat="45.19353" lon="6.39475">
        <ele>2019.97</ele>
        <time>2013-12-23T09:33:20Z</time>
      </trkpt>
      <trkpt lat="45.19346" lon="6.39451">
        <ele>2018.56</ele>
        <time>2013-12-23T09:33:52Z</time>
      </trkpt>
      <trkpt lat="45.19345" lon="6.39426">
        <ele>2024.09</ele>
        <time>2013-12-23T09:34:21Z</time>
      </trkpt>
      <trkpt lat="45.19344" lon="6.394">
        <ele>2034.44</ele>
        <time>2013-12-23T09:34:55Z</time>
      </trkpt>
      <trkpt lat="45.19333" lon="6.3938">
        <ele>2034.62</ele>
        <time>2013-12-23T09:35:40Z</time>
      </trkpt>
      <trkpt lat="45.19325" lon="6.39357">
        <ele>2034.35</ele>
        <time>2013-12-23T09:36:27Z</time>
      </trkpt>
      <trkpt lat="45.19319" lon="6.39332">
        <ele>2045.03</ele>
        <time>2013-12-23T09:37:04Z</time>
      </trkpt>
      <trkpt lat="45.19308" lon="6.39312">
        <ele>2050.63</ele>
        <time>2013-12-23T09:37:48Z</time>
      </trkpt>
      <trkpt lat="45.19299" lon="6.39289">
        <ele>2054.01</ele>
        <time>2013-12-23T09:38:28Z</time>
      </trkpt>
      <trkpt lat="45.19291" lon="6.39265">
        <ele>2057.23</ele>
        <time>2013-12-23T09:39:00Z</time>
      </trkpt>
      <trkpt lat="45.19283" lon="6.39242">
        <ele>2065.03</ele>
        <time>2013-12-23T09:39:40Z</time>
      </trkpt>
      <trkpt lat="45.19276" lon="6.39218">
        <ele>2069.85</ele>
        <time>2013-12-23T09:40:17Z</time>
      </trkpt>
      <trkpt lat="45.19262" lon="6.39201">
        <ele>2075.41</ele>
        <time>2013-12-23T09:41:06Z</time>
      </trkpt>
      <trkpt lat="45.19254" lon="6.39178">
        <ele>2084.17</ele>
        <time>2013-12-23T09:41:40Z</time>
      </trkpt>
      <trkpt lat="45.19242" lon="6.39159">
        <ele>2088.62</ele>
        <time>2013-12-23T09:42:20Z</time>
      </trkpt>
      <trkpt lat="45.19235" lon="6.39135">
        <ele>2094.17</ele>
        <time>2013-12-23T09:43:03Z</time>
      </trkpt>
      <trkpt lat="45.19218" lon="6.39125">
        <ele>2099</ele>
        <time>2013-12-23T09:43:38Z</time>
      </trkpt>
      <trkpt lat="45.19205" lon="6.39106">
        <ele>2101.08</ele>
        <time>2013-12-23T09:44:15Z</time>
      </trkpt>
      <trkpt lat="45.19196" lon="6.39084">
        <ele>2107.69</ele>
        <time>2013-12-23T09:44:57Z</time>
      </trkpt>
      <trkpt lat="45.19182" lon="6.39067">
        <ele>2111.35</ele>
        <time>2013-12-23T09:45:27Z</time>
      </trkpt>
      <trkpt lat="45.1917" lon="6.39048">
        <ele>2112.9</ele>
        <time>2013-12-23T09:45:58Z</time>
      </trkpt>
      <trkpt lat="45.19158" lon="6.39029">
        <ele>2119.64</ele>
        <time>2013-12-23T09:46:20Z</time>
      </trkpt>
      <trkpt lat="45.19148" lon="6.39007">
        <ele>2121.66</ele>
        <time>2013-12-23T09:46:50Z</time>
      </trkpt>
      <trkpt lat="45.19141" lon="6.38983">
        <ele>2125.94</ele>
        <time>2013-12-23T09:47:45Z</time>
      </trkpt>
      <trkpt lat="45.19131" lon="6.38961">
        <ele>2132.9</ele>
        <time>2013-12-23T09:49:17Z</time>
      </trkpt>
      <trkpt lat="45.19132" lon="6.38936">
        <ele>2138.78</ele>
        <time>2013-12-23T09:52:25Z</time>
      </trkpt>
      <trkpt lat="45.19134" lon="6.3891">
        <ele>2142.4</ele>
        <time>2013-12-23T09:52:52Z</time>
      </trkpt>
      <trkpt lat="45.19137" lon="6.38884">
        <ele>2146.92</ele>
        <time>2013-12-23T09:53:17Z</time>
      </trkpt>
      <trkpt lat="45.1914" lon="6.38858">
        <ele>2149.33</ele>
        <time>2013-12-23T09:53:45Z</time>
      </trkpt>
      <trkpt lat="45.19136" lon="6.38833">
        <ele>2142.26</ele>
        <time>2013-12-23T09:54:23Z</time>
      </trkpt>
      <trkpt lat="45.19133" lon="6.38808">
        <ele>2154.67</ele>
        <time>2013-12-23T09:56:09Z</time>
      </trkpt>
      <trkpt lat="45.19131" lon="6.38782">
        <ele>2158.8</ele>
        <time>2013-12-23T09:56:39Z</time>
      </trkpt>
      <trkpt lat="45.19128" lon="6.38756">
        <ele>2161.66</ele>
        <time>2013-12-23T09:57:15Z</time>
      </trkpt>
      <trkpt lat="45.19123" lon="6.38732">
        <ele>2169.57</ele>
        <time>2013-12-23T09:57:56Z</time>
      </trkpt>
      <trkpt lat="45.19111" lon="6.38713">
        <ele>2171.66</ele>
        <time>2013-12-23T09:58:25Z</time>
      </trkpt>
      <trkpt lat="45.19094" lon="6.38705">
        <ele>2175.01</ele>
        <time>2013-12-23T09:58:54Z</time>
      </trkpt>
      <trkpt lat="45.19079" lon="6.3869">
        <ele>2181.94</ele>
        <time>2013-12-23T09:59:24Z</time>
      </trkpt>
      <trkpt lat="45.19063" lon="6.38677">
        <ele>2187.62</ele>
        <time>2013-12-23T09:59:54Z</time>
      </trkpt>
      <trkpt lat="45.19072" lon="6.38654">
        <ele>2198</ele>
        <time>2013-12-23T10:00:51Z</time>
      </trkpt>
      <trkpt lat="45.19089" lon="6.38644">
        <ele>2205.54</ele>
        <time>2013-12-23T10:01:26Z</time>
      </trkpt>
      <trkpt lat="45.19107" lon="6.38636">
        <ele>2208.59</ele>
        <time>2013-12-23T10:02:12Z</time>
      </trkpt>
      <trkpt lat="45.19102" lon="6.38611">
        <ele>2207.12</ele>
        <time>2013-12-23T10:02:57Z</time>
      </trkpt>
      <trkpt lat="45.1909" lon="6.38592">
        <ele>2219.27</ele>
        <time>2013-12-23T10:06:15Z</time>
      </trkpt>
      <trkpt lat="45.19074" lon="6.38579">
        <ele>2225.45</ele>
        <time>2013-12-23T10:06:48Z</time>
      </trkpt>
      <trkpt lat="45.19067" lon="6.38556">
        <ele>2230.06</ele>
        <time>2013-12-23T10:07:24Z</time>
      </trkpt>
      <trkpt lat="45.19058" lon="6.38532">
        <ele>2232.12</ele>
        <time>2013-12-23T10:07:49Z</time>
      </trkpt>
      <trkpt lat="45.19049" lon="6.3851">
        <ele>2237.16</ele>
        <time>2013-12-23T10:08:16Z</time>
      </trkpt>
      <trkpt lat="45.19038" lon="6.38488">
        <ele>2238.54</ele>
        <time>2013-12-23T10:08:43Z</time>
      </trkpt>
      <trkpt lat="45.19028" lon="6.38466">
        <ele>2244.08</ele>
        <time>2013-12-23T10:09:13Z</time>
      </trkpt>
      <trkpt lat="45.19017" lon="6.38445">
        <ele>2243.47</ele>
        <time>2013-12-23T10:09:43Z</time>
      </trkpt>
      <trkpt lat="45.19007" lon="6.38424">
        <ele>2243.73</ele>
        <time>2013-12-23T10:14:04Z</time>
      </trkpt>
      <trkpt lat="45.18995" lon="6.38404">
        <ele>2252.08</ele>
        <time>2013-12-23T10:14:40Z</time>
      </trkpt>
      <trkpt lat="45.18988" lon="6.38381">
        <ele>2257.74</ele>
        <time>2013-12-23T10:15:13Z</time>
      </trkpt>
      <trkpt lat="45.18976" lon="6.38362">
        <ele>2261.1</ele>
        <time>2013-12-23T10:15:41Z</time>
      </trkpt>
      <trkpt lat="45.18969" lon="6.38337">
        <ele>2265.92</ele>
        <time>2013-12-23T10:16:10Z</time>
      </trkpt>
      <trkpt lat="45.18978" lon="6.38316">
        <ele>2276.1</ele>
        <time>2013-12-23T10:16:54Z</time>
      </trkpt>
      <trkpt lat="45.18971" lon="6.38292">
        <ele>2275.68</ele>
        <time>2013-12-23T10:17:36Z</time>
      </trkpt>
      <trkpt lat="45.18959" lon="6.38272">
        <ele>2281.53</ele>
        <time>2013-12-23T10:18:05Z</time>
      </trkpt>
      <trkpt lat="45.1897" lon="6.38252">
        <ele>2292</ele>
        <time>2013-12-23T10:19:12Z</time>
      </trkpt>
      <trkpt lat="45.18989" lon="6.38251">
        <ele>2298.19</ele>
        <time>2013-12-23T10:19:46Z</time>
      </trkpt>
      <trkpt lat="45.18994" lon="6.38227">
        <ele>2296.85</ele>
        <time>2013-12-23T10:21:06Z</time>
      </trkpt>
      <trkpt lat="45.1898" lon="6.38209">
        <ele>2307.37</ele>
        <time>2013-12-23T10:21:35Z</time>
      </trkpt>
      <trkpt lat="45.1898" lon="6.38183">
        <ele>2305.32</ele>
        <time>2013-12-23T10:22:06Z</time>
      </trkpt>
      <trkpt lat="45.18977" lon="6.38157">
        <ele>2309.17</ele>
        <time>2013-12-23T10:22:38Z</time>
      </trkpt>
      <trkpt lat="45.18965" lon="6.38138">
        <ele>2315.77</ele>
        <time>2013-12-23T10:23:00Z</time>
      </trkpt>
      <trkpt lat="45.18954" lon="6.38118">
        <ele>2317.2</ele>
        <time>2013-12-23T10:23:28Z</time>
      </trkpt>
      <trkpt lat="45.18943" lon="6.38097">
        <ele>2319.9</ele>
        <time>2013-12-23T10:23:55Z</time>
      </trkpt>
      <trkpt lat="45.18931" lon="6.38076">
        <ele>2318.56</ele>
        <time>2013-12-23T10:24:27Z</time>
      </trkpt>
      <trkpt lat="45.1892" lon="6.38056">
        <ele>2325.39</ele>
        <time>2013-12-23T10:24:54Z</time>
      </trkpt>
      <trkpt lat="45.18907" lon="6.38038">
        <ele>2329.47</ele>
        <time>2013-12-23T10:25:23Z</time>
      </trkpt>
      <trkpt lat="45.18906" lon="6.38011">
        <ele>2336.3</ele>
        <time>2013-12-23T10:26:09Z</time>
      </trkpt>
      <trkpt lat="45.18913" lon="6.37987">
        <ele>2343.7</ele>
        <time>2013-12-23T10:26:37Z</time>
      </trkpt>
      <trkpt lat="45.18904" lon="6.37964">
        <ele>2347.37</ele>
        <time>2013-12-23T10:28:13Z</time>
      </trkpt>
      <trkpt lat="45.18886" lon="6.37969">
        <ele>2352.21</ele>
        <time>2013-12-23T10:28:57Z</time>
      </trkpt>
      <trkpt lat="45.18869" lon="6.37961">
        <ele>2357.94</ele>
        <time>2013-12-23T10:29:28Z</time>
      </trkpt>
      <trkpt lat="45.18851" lon="6.37952">
        <ele>2362.76</ele>
        <time>2013-12-23T10:30:28Z</time>
      </trkpt>
      <trkpt lat="45.18837" lon="6.37937">
        <ele>2368.9</ele>
        <time>2013-12-23T10:31:01Z</time>
      </trkpt>
      <trkpt lat="45.18844" lon="6.37914">
        <ele>2377.64</ele>
        <time>2013-12-23T10:32:01Z</time>
      </trkpt>
      <trkpt lat="45.18832" lon="6.37895">
        <ele>2382.17</ele>
        <time>2013-12-23T10:32:47Z</time>
      </trkpt>
      <trkpt lat="45.18816" lon="6.37883">
        <ele>2387.7</ele>
        <time>2013-12-23T10:33:20Z</time>
      </trkpt>
      <trkpt lat="45.18798" lon="6.37877">
        <ele>2389.65</ele>
        <time>2013-12-23T10:33:50Z</time>
      </trkpt>
      <trkpt lat="45.18779" lon="6.37877">
        <ele>2394.46</ele>
        <time>2013-12-23T10:34:19Z</time>
      </trkpt>
      <trkpt lat="45.18785" lon="6.37853">
        <ele>2406.23</ele>
        <time>2013-12-23T10:35:48Z</time>
      </trkpt>
      <trkpt lat="45.18801" lon="6.37839">
        <ele>2407.8</ele>
        <time>2013-12-23T10:36:16Z</time>
      </trkpt>
      <trkpt lat="45.18807" lon="6.37815">
        <ele>2406.55</ele>
        <time>2013-12-23T10:36:52Z</time>
      </trkpt>
      <trkpt lat="45.18807" lon="6.37789">
        <ele>2412.18</ele>
        <time>2013-12-23T10:37:17Z</time>
      </trkpt>
      <trkpt lat="45.18804" lon="6.37763">
        <ele>2411.83</ele>
        <time>2013-12-23T10:37:45Z</time>
      </trkpt>
      <trkpt lat="45.18804" lon="6.37737">
        <ele>2415.47</ele>
        <time>2013-12-23T10:38:11Z</time>
      </trkpt>
      <trkpt lat="45.18803" lon="6.37712">
        <ele>2416.51</ele>
        <time>2013-12-23T10:38:38Z</time>
      </trkpt>
      <trkpt lat="45.188" lon="6.37686">
        <ele>2423.37</ele>
        <time>2013-12-23T10:39:21Z</time>
      </trkpt>
      <trkpt lat="45.18802" lon="6.37661">
        <ele>2424.31</ele>
        <time>2013-12-23T10:39:51Z</time>
      </trkpt>
      <trkpt lat="45.18803" lon="6.37635">
        <ele>2425.51</ele>
        <time>2013-12-23T10:40:18Z</time>
      </trkpt>
      <trkpt lat="45.18807" lon="6.3761">
        <ele>2431.38</ele>
        <time>2013-12-23T10:40:45Z</time>
      </trkpt>
      <trkpt lat="45.1881" lon="6.37584">
        <ele>2436.37</ele>
        <time>2013-12-23T10:41:15Z</time>
      </trkpt>
      <trkpt lat="45.18814" lon="6.37559">
        <ele>2443.17</ele>
        <time>2013-12-23T10:42:08Z</time>
      </trkpt>
      <trkpt lat="45.18797" lon="6.37549">
        <ele>2445.67</ele>
        <time>2013-12-23T10:42:49Z</time>
      </trkpt>
      <trkpt lat="45.18781" lon="6.37537">
        <ele>2451.21</ele>
        <time>2013-12-23T10:43:19Z</time>
      </trkpt>
      <trkpt lat="45.18766" lon="6.37524">
        <ele>2455.2</ele>
        <time>2013-12-23T10:44:26Z</time>
      </trkpt>
      <trkpt lat="45.1878" lon="6.37507">
        <ele>2463.79</ele>
        <time>2013-12-23T10:45:21Z</time>
      </trkpt>
      <trkpt lat="45.18795" lon="6.37493">
        <ele>2467.62</ele>
        <time>2013-12-23T10:45:54Z</time>
      </trkpt>
      <trkpt lat="45.18798" lon="6.37468">
        <ele>2476.29</ele>
        <time>2013-12-23T10:46:31Z</time>
      </trkpt>
      <trkpt lat="45.18783" lon="6.37452">
        <ele>2486.56</ele>
        <time>2013-12-23T10:47:01Z</time>
      </trkpt>
      <trkpt lat="45.18791" lon="6.37428">
        <ele>2489.07</ele>
        <time>2013-12-23T10:48:43Z</time>
      </trkpt>
      <trkpt lat="45.18776" lon="6.37413">
        <ele>2494.19</ele>
        <time>2013-12-23T10:49:16Z</time>
      </trkpt>
      <trkpt lat="45.18775" lon="6.37388">
        <ele>2510.03</ele>
        <time>2013-12-23T10:50:43Z</time>
      </trkpt>
      <trkpt lat="45.18786" lon="6.37368">
        <ele>2513.91</ele>
        <time>2013-12-23T10:53:40Z</time>
      </trkpt>
      <trkpt lat="45.18772" lon="6.37351">
        <ele>2528.43</ele>
        <time>2013-12-23T10:54:57Z</time>
      </trkpt>
      <trkpt lat="45.18755" lon="6.37343">
        <ele>2525.16</ele>
        <time>2013-12-23T10:56:08Z</time>
      </trkpt>
      <trkpt lat="45.18752" lon="6.37317">
        <ele>2532.38</ele>
        <time>2013-12-23T10:57:03Z</time>
      </trkpt>
      <trkpt lat="45.18762" lon="6.37295">
        <ele>2541.63</ele>
        <time>2013-12-23T10:57:40Z</time>
      </trkpt>
      <trkpt lat="45.18759" lon="6.3727">
        <ele>2558.61</ele>
        <time>2013-12-23T10:59:41Z</time>
      </trkpt>
      <trkpt lat="45.18777" lon="6.37263">
        <ele>2551.34</ele>
        <time>2013-12-23T11:00:40Z</time>
      </trkpt>
      <trkpt lat="45.18786" lon="6.3724">
        <ele>2560.14</ele>
        <time>2013-12-23T11:01:09Z</time>
      </trkpt>
      <trkpt lat="45.188" lon="6.37225">
        <ele>2563.45</ele>
        <time>2013-12-23T11:01:38Z</time>
      </trkpt>
      <trkpt lat="45.18787" lon="6.37207">
        <ele>2570.03</ele>
        <time>2013-12-23T11:03:43Z</time>
      </trkpt>
      <trkpt lat="45.18771" lon="6.37197">
        <ele>2579.02</ele>
        <time>2013-12-23T11:04:11Z</time>
      </trkpt>
      <trkpt lat="45.18766" lon="6.37172">
        <ele>2576.54</ele>
        <time>2013-12-23T11:05:56Z</time>
      </trkpt>
      <trkpt lat="45.18772" lon="6.37147">
        <ele>2583.09</ele>
        <time>2013-12-23T11:07:01Z</time>
      </trkpt>
      <trkpt lat="45.18782" lon="6.37126">
        <ele>2583.42</ele>
        <time>2013-12-23T11:07:47Z</time>
      </trkpt>
      <trkpt lat="45.1879" lon="6.37102">
        <ele>2612.82</ele>
        <time>2013-12-23T11:10:18Z</time>
      </trkpt>
      <trkpt lat="45.18784" lon="6.37078">
        <ele>2613.81</ele>
        <time>2013-12-23T11:11:37Z</time>
      </trkpt>
      <trkpt lat="45.1877" lon="6.37062">
        <ele>2622.72</ele>
        <time>2013-12-23T11:12:07Z</time>
      </trkpt>
      <trkpt lat="45.18753" lon="6.37051">
        <ele>2634.53</ele>
        <time>2013-12-23T11:12:36Z</time>
      </trkpt>
      <trkpt lat="45.18745" lon="6.37028">
        <ele>2634.57</ele>
        <time>2013-12-23T11:14:03Z</time>
      </trkpt>
      <trkpt lat="45.18726" lon="6.37028">
        <ele>2643.64</ele>
        <time>2013-12-23T11:15:41Z</time>
      </trkpt>
      <trkpt lat="45.18709" lon="6.37036">
        <ele>2643.14</ele>
        <time>2013-12-23T11:16:06Z</time>
      </trkpt>
      <trkpt lat="45.18694" lon="6.37051">
        <ele>2643.39</ele>
        <time>2013-12-23T11:16:43Z</time>
      </trkpt>
      <trkpt lat="45.18676" lon="6.37057">
        <ele>2649.85</ele>
        <time>2013-12-23T11:17:20Z</time>
      </trkpt>
      <trkpt lat="45.18658" lon="6.37058">
        <ele>2650.17</ele>
        <time>2013-12-23T11:18:03Z</time>
      </trkpt>
      <trkpt lat="45.1864" lon="6.37052">
        <ele>2656.04</ele>
        <time>2013-12-23T11:18:34Z</time>
      </trkpt>
      <trkpt lat="45.18648" lon="6.37028">
        <ele>2657.95</ele>
        <time>2013-12-23T11:19:36Z</time>
      </trkpt>
      <trkpt lat="45.18651" lon="6.37002">
        <ele>2663.21</ele>
        <time>2013-12-23T11:20:21Z</time>
      </trkpt>
      <trkpt lat="45.18655" lon="6.36977">
        <ele>2666.47</ele>
        <time>2013-12-23T11:21:23Z</time>
      </trkpt>
      <trkpt lat="45.18663" lon="6.36955">
        <ele>2677.08</ele>
        <time>2013-12-23T11:22:01Z</time>
      </trkpt>
      <trkpt lat="45.18667" lon="6.36929">
        <ele>2688.83</ele>
        <time>2013-12-23T11:23:22Z</time>
      </trkpt>
      <trkpt lat="45.18667" lon="6.36904">
        <ele>2694.4</ele>
        <time>2013-12-23T11:23:56Z</time>
      </trkpt>
      <trkpt lat="45.18667" lon="6.36931">
        <ele>2690.98</ele>
        <time>2013-12-23T11:55:50Z</time>
      </trkpt>
      <trkpt lat="45.18686" lon="6.36946">
        <ele>2686.68</ele>
        <time>2013-12-23T11:55:54Z</time>
      </trkpt>
      <trkpt lat="45.18706" lon="6.36949">
        <ele>2682.07</ele>
        <time>2013-12-23T11:55:58Z</time>
      </trkpt>
      <trkpt lat="45.18712" lon="6.36973">
        <ele>2673.17</ele>
        <time>2013-12-23T11:56:02Z</time>
      </trkpt>
      <trkpt lat="45.18719" lon="6.37003">
        <ele>2657.67</ele>
        <time>2013-12-23T11:56:07Z</time>
      </trkpt>
      <trkpt lat="45.18721" lon="6.37031">
        <ele>2648</ele>
        <time>2013-12-23T11:56:11Z</time>
      </trkpt>
      <trkpt lat="45.18735" lon="6.37052">
        <ele>2638.18</ele>
        <time>2013-12-23T11:56:16Z</time>
      </trkpt>
      <trkpt lat="45.18751" lon="6.37064">
        <ele>2629.84</ele>
        <time>2013-12-23T11:56:20Z</time>
      </trkpt>
      <trkpt lat="45.18764" lon="6.37084">
        <ele>2618.25</ele>
        <time>2013-12-23T11:56:24Z</time>
      </trkpt>
      <trkpt lat="45.18783" lon="6.37104">
        <ele>2610.13</ele>
        <time>2013-12-23T11:56:28Z</time>
      </trkpt>
      <trkpt lat="45.18799" lon="6.37121">
        <ele>2603.08</ele>
        <time>2013-12-23T11:56:33Z</time>
      </trkpt>
      <trkpt lat="45.18787" lon="6.37142">
        <ele>2593.12</ele>
        <time>2013-12-23T11:57:19Z</time>
      </trkpt>
      <trkpt lat="45.18768" lon="6.37158">
        <ele>2590.02</ele>
        <time>2013-12-23T11:57:23Z</time>
      </trkpt>
      <trkpt lat="45.18767" lon="6.37183">
        <ele>2585.91</ele>
        <time>2013-12-23T11:57:27Z</time>
      </trkpt>
      <trkpt lat="45.18775" lon="6.37208">
        <ele>2568.44</ele>
        <time>2013-12-23T11:57:52Z</time>
      </trkpt>
      <trkpt lat="45.18788" lon="6.37234">
        <ele>2561.82</ele>
        <time>2013-12-23T11:57:57Z</time>
      </trkpt>
      <trkpt lat="45.18808" lon="6.37247">
        <ele>2556.41</ele>
        <time>2013-12-23T11:58:01Z</time>
      </trkpt>
      <trkpt lat="45.18824" lon="6.37259">
        <ele>2552.54</ele>
        <time>2013-12-23T11:58:05Z</time>
      </trkpt>
      <trkpt lat="45.18821" lon="6.37285">
        <ele>2543.95</ele>
        <time>2013-12-23T11:58:30Z</time>
      </trkpt>
      <trkpt lat="45.18809" lon="6.37307">
        <ele>2536.15</ele>
        <time>2013-12-23T11:58:49Z</time>
      </trkpt>
      <trkpt lat="45.18818" lon="6.37333">
        <ele>2526.65</ele>
        <time>2013-12-23T11:58:56Z</time>
      </trkpt>
      <trkpt lat="45.18824" lon="6.37357">
        <ele>2508.73</ele>
        <time>2013-12-23T11:59:10Z</time>
      </trkpt>
      <trkpt lat="45.18839" lon="6.37374">
        <ele>2508.87</ele>
        <time>2013-12-23T11:59:15Z</time>
      </trkpt>
      <trkpt lat="45.18839" lon="6.37402">
        <ele>2498.36</ele>
        <time>2013-12-23T11:59:23Z</time>
      </trkpt>
      <trkpt lat="45.18832" lon="6.37427">
        <ele>2485.11</ele>
        <time>2013-12-23T11:59:43Z</time>
      </trkpt>
      <trkpt lat="45.18835" lon="6.37453">
        <ele>2477.16</ele>
        <time>2013-12-23T11:59:49Z</time>
      </trkpt>
      <trkpt lat="45.18818" lon="6.37463">
        <ele>2472.9</ele>
        <time>2013-12-23T11:59:52Z</time>
      </trkpt>
      <trkpt lat="45.18802" lon="6.37477">
        <ele>2469.54</ele>
        <time>2013-12-23T11:59:58Z</time>
      </trkpt>
      <trkpt lat="45.18785" lon="6.37491">
        <ele>2467</ele>
        <time>2013-12-23T12:00:03Z</time>
      </trkpt>
      <trkpt lat="45.18782" lon="6.37518">
        <ele>2461.68</ele>
        <time>2013-12-23T12:00:07Z</time>
      </trkpt>
      <trkpt lat="45.18784" lon="6.37544">
        <ele>2454.61</ele>
        <time>2013-12-23T12:00:11Z</time>
      </trkpt>
      <trkpt lat="45.18778" lon="6.37573">
        <ele>2448.92</ele>
        <time>2013-12-23T12:00:15Z</time>
      </trkpt>
      <trkpt lat="45.18779" lon="6.37599">
        <ele>2444.28</ele>
        <time>2013-12-23T12:00:19Z</time>
      </trkpt>
      <trkpt lat="45.18781" lon="6.3763">
        <ele>2440.25</ele>
        <time>2013-12-23T12:00:23Z</time>
      </trkpt>
      <trkpt lat="45.1879" lon="6.37655">
        <ele>2435.37</ele>
        <time>2013-12-23T12:00:27Z</time>
      </trkpt>
      <trkpt lat="45.18795" lon="6.37684">
        <ele>2430.16</ele>
        <time>2013-12-23T12:00:31Z</time>
      </trkpt>
      <trkpt lat="45.18797" lon="6.37711">
        <ele>2426.06</ele>
        <time>2013-12-23T12:00:34Z</time>
      </trkpt>
      <trkpt lat="45.18799" lon="6.37742">
        <ele>2421.44</ele>
        <time>2013-12-23T12:00:37Z</time>
      </trkpt>
      <trkpt lat="45.18802" lon="6.37769">
        <ele>2417.29</ele>
        <time>2013-12-23T12:00:40Z</time>
      </trkpt>
      <trkpt lat="45.18811" lon="6.37795">
        <ele>2413.97</ele>
        <time>2013-12-23T12:00:44Z</time>
      </trkpt>
      <trkpt lat="45.18823" lon="6.37816">
        <ele>2409.58</ele>
        <time>2013-12-23T12:00:49Z</time>
      </trkpt>
      <trkpt lat="45.18842" lon="6.37825">
        <ele>2405.08</ele>
        <time>2013-12-23T12:01:17Z</time>
      </trkpt>
      <trkpt lat="45.18862" lon="6.37828">
        <ele>2402.16</ele>
        <time>2013-12-23T12:01:22Z</time>
      </trkpt>
      <trkpt lat="45.18871" lon="6.37851">
        <ele>2395.87</ele>
        <time>2013-12-23T12:01:35Z</time>
      </trkpt>
      <trkpt lat="45.18874" lon="6.37878">
        <ele>2389.44</ele>
        <time>2013-12-23T12:01:39Z</time>
      </trkpt>
      <trkpt lat="45.18877" lon="6.37909">
        <ele>2378.63</ele>
        <time>2013-12-23T12:01:44Z</time>
      </trkpt>
      <trkpt lat="45.1889" lon="6.37928">
        <ele>2368</ele>
        <time>2013-12-23T12:01:49Z</time>
      </trkpt>
      <trkpt lat="45.18894" lon="6.37957">
        <ele>2359.45</ele>
        <time>2013-12-23T12:01:54Z</time>
      </trkpt>
      <trkpt lat="45.18908" lon="6.37976">
        <ele>2350.33</ele>
        <time>2013-12-23T12:02:17Z</time>
      </trkpt>
      <trkpt lat="45.18918" lon="6.37998">
        <ele>2345.9</ele>
        <time>2013-12-23T12:02:20Z</time>
      </trkpt>
      <trkpt lat="45.1892" lon="6.3803">
        <ele>2340.26</ele>
        <time>2013-12-23T12:02:23Z</time>
      </trkpt>
      <trkpt lat="45.18923" lon="6.38057">
        <ele>2334.23</ele>
        <time>2013-12-23T12:02:26Z</time>
      </trkpt>
      <trkpt lat="45.18932" lon="6.38087">
        <ele>2328.33</ele>
        <time>2013-12-23T12:02:30Z</time>
      </trkpt>
      <trkpt lat="45.18939" lon="6.38118">
        <ele>2324.38</ele>
        <time>2013-12-23T12:02:33Z</time>
      </trkpt>
      <trkpt lat="45.18946" lon="6.38143">
        <ele>2320.84</ele>
        <time>2013-12-23T12:02:36Z</time>
      </trkpt>
      <trkpt lat="45.18956" lon="6.38173">
        <ele>2316.32</ele>
        <time>2013-12-23T12:02:40Z</time>
      </trkpt>
      <trkpt lat="45.18971" lon="6.382">
        <ele>2312.74</ele>
        <time>2013-12-23T12:02:44Z</time>
      </trkpt>
      <trkpt lat="45.18986" lon="6.38218">
        <ele>2310.15</ele>
        <time>2013-12-23T12:02:47Z</time>
      </trkpt>
      <trkpt lat="45.18996" lon="6.38248">
        <ele>2298.56</ele>
        <time>2013-12-23T12:03:22Z</time>
      </trkpt>
      <trkpt lat="45.19001" lon="6.38276">
        <ele>2293.92</ele>
        <time>2013-12-23T12:03:25Z</time>
      </trkpt>
      <trkpt lat="45.1899" lon="6.38298">
        <ele>2286.81</ele>
        <time>2013-12-23T12:03:30Z</time>
      </trkpt>
      <trkpt lat="45.18979" lon="6.38324">
        <ele>2279.04</ele>
        <time>2013-12-23T12:03:34Z</time>
      </trkpt>
      <trkpt lat="45.18984" lon="6.38357">
        <ele>2274.43</ele>
        <time>2013-12-23T12:03:37Z</time>
      </trkpt>
      <trkpt lat="45.18995" lon="6.38384">
        <ele>2267.97</ele>
        <time>2013-12-23T12:03:40Z</time>
      </trkpt>
      <trkpt lat="45.19008" lon="6.38404">
        <ele>2262.35</ele>
        <time>2013-12-23T12:03:43Z</time>
      </trkpt>
      <trkpt lat="45.19012" lon="6.38433">
        <ele>2251.13</ele>
        <time>2013-12-23T12:03:50Z</time>
      </trkpt>
      <trkpt lat="45.19023" lon="6.38454">
        <ele>2248.5</ele>
        <time>2013-12-23T12:03:54Z</time>
      </trkpt>
      <trkpt lat="45.19037" lon="6.38472">
        <ele>2246.16</ele>
        <time>2013-12-23T12:03:58Z</time>
      </trkpt>
      <trkpt lat="45.19054" lon="6.38496">
        <ele>2243.48</ele>
        <time>2013-12-23T12:04:02Z</time>
      </trkpt>
      <trkpt lat="45.19068" lon="6.38522">
        <ele>2238.44</ele>
        <time>2013-12-23T12:04:06Z</time>
      </trkpt>
      <trkpt lat="45.19078" lon="6.38543">
        <ele>2234.14</ele>
        <time>2013-12-23T12:04:09Z</time>
      </trkpt>
      <trkpt lat="45.19073" lon="6.38572">
        <ele>2226.32</ele>
        <time>2013-12-23T12:04:16Z</time>
      </trkpt>
      <trkpt lat="45.1909" lon="6.38578">
        <ele>2221.96</ele>
        <time>2013-12-23T12:04:37Z</time>
      </trkpt>
      <trkpt lat="45.19108" lon="6.38594">
        <ele>2218.93</ele>
        <time>2013-12-23T12:04:42Z</time>
      </trkpt>
      <trkpt lat="45.19117" lon="6.38622">
        <ele>2212.98</ele>
        <time>2013-12-23T12:04:47Z</time>
      </trkpt>
      <trkpt lat="45.19109" lon="6.38647">
        <ele>2203.48</ele>
        <time>2013-12-23T12:04:54Z</time>
      </trkpt>
      <trkpt lat="45.19115" lon="6.38673">
        <ele>2195.25</ele>
        <time>2013-12-23T12:04:59Z</time>
      </trkpt>
      <trkpt lat="45.19114" lon="6.38702">
        <ele>2183.95</ele>
        <time>2013-12-23T12:05:09Z</time>
      </trkpt>
      <trkpt lat="45.19125" lon="6.38731">
        <ele>2180.1</ele>
        <time>2013-12-23T12:05:13Z</time>
      </trkpt>
      <trkpt lat="45.19132" lon="6.38757">
        <ele>2174.58</ele>
        <time>2013-12-23T12:05:20Z</time>
      </trkpt>
      <trkpt lat="45.19137" lon="6.38785">
        <ele>2168.76</ele>
        <time>2013-12-23T12:05:24Z</time>
      </trkpt>
      <trkpt lat="45.19138" lon="6.38817">
        <ele>2164.49</ele>
        <time>2013-12-23T12:05:27Z</time>
      </trkpt>
      <trkpt lat="45.1914" lon="6.38845">
        <ele>2160.09</ele>
        <time>2013-12-23T12:05:30Z</time>
      </trkpt>
      <trkpt lat="45.19142" lon="6.38881">
        <ele>2153.72</ele>
        <time>2013-12-23T12:05:33Z</time>
      </trkpt>
      <trkpt lat="45.19139" lon="6.38906">
        <ele>2150.28</ele>
        <time>2013-12-23T12:05:35Z</time>
      </trkpt>
      <trkpt lat="45.19146" lon="6.38934">
        <ele>2146.08</ele>
        <time>2013-12-23T12:05:38Z</time>
      </trkpt>
      <trkpt lat="45.19138" lon="6.38957">
        <ele>2141.4</ele>
        <time>2013-12-23T12:05:42Z</time>
      </trkpt>
      <trkpt lat="45.19146" lon="6.3898">
        <ele>2131.55</ele>
        <time>2013-12-23T12:06:29Z</time>
      </trkpt>
      <trkpt lat="45.19154" lon="6.39005">
        <ele>2124.8</ele>
        <time>2013-12-23T12:06:34Z</time>
      </trkpt>
      <trkpt lat="45.19163" lon="6.39035">
        <ele>2120.55</ele>
        <time>2013-12-23T12:06:39Z</time>
      </trkpt>
      <trkpt lat="45.19176" lon="6.39058">
        <ele>2117.84</ele>
        <time>2013-12-23T12:06:43Z</time>
      </trkpt>
      <trkpt lat="45.1919" lon="6.39079">
        <ele>2113.71</ele>
        <time>2013-12-23T12:06:47Z</time>
      </trkpt>
      <trkpt lat="45.19203" lon="6.39102">
        <ele>2109.17</ele>
        <time>2013-12-23T12:06:51Z</time>
      </trkpt>
      <trkpt lat="45.19216" lon="6.39122">
        <ele>2104.8</ele>
        <time>2013-12-23T12:06:56Z</time>
      </trkpt>
      <trkpt lat="45.19235" lon="6.39134">
        <ele>2095.4</ele>
        <time>2013-12-23T12:07:21Z</time>
      </trkpt>
      <trkpt lat="45.19247" lon="6.39157">
        <ele>2092.38</ele>
        <time>2013-12-23T12:07:26Z</time>
      </trkpt>
      <trkpt lat="45.19259" lon="6.39183">
        <ele>2085.75</ele>
        <time>2013-12-23T12:07:37Z</time>
      </trkpt>
      <trkpt lat="45.19267" lon="6.39214">
        <ele>2081.44</ele>
        <time>2013-12-23T12:07:41Z</time>
      </trkpt>
      <trkpt lat="45.19281" lon="6.39233">
        <ele>2071.63</ele>
        <time>2013-12-23T12:07:48Z</time>
      </trkpt>
      <trkpt lat="45.19294" lon="6.39254">
        <ele>2067.07</ele>
        <time>2013-12-23T12:07:52Z</time>
      </trkpt>
      <trkpt lat="45.19299" lon="6.39279">
        <ele>2057.28</ele>
        <time>2013-12-23T12:08:26Z</time>
      </trkpt>
      <trkpt lat="45.19303" lon="6.39308">
        <ele>2058.68</ele>
        <time>2013-12-23T12:08:40Z</time>
      </trkpt>
      <trkpt lat="45.19317" lon="6.39326">
        <ele>2054.89</ele>
        <time>2013-12-23T12:08:45Z</time>
      </trkpt>
      <trkpt lat="45.19326" lon="6.39348">
        <ele>2048.42</ele>
        <time>2013-12-23T12:08:50Z</time>
      </trkpt>
      <trkpt lat="45.19333" lon="6.39377">
        <ele>2041.16</ele>
        <time>2013-12-23T12:08:55Z</time>
      </trkpt>
      <trkpt lat="45.19346" lon="6.39399">
        <ele>2033.09</ele>
        <time>2013-12-23T12:09:00Z</time>
      </trkpt>
      <trkpt lat="45.19358" lon="6.39421">
        <ele>2029.33</ele>
        <time>2013-12-23T12:09:03Z</time>
      </trkpt>
      <trkpt lat="45.19367" lon="6.39444">
        <ele>2026.5</ele>
        <time>2013-12-23T12:09:06Z</time>
      </trkpt>
      <trkpt lat="45.19348" lon="6.39448">
        <ele>2021.04</ele>
        <time>2013-12-23T12:09:16Z</time>
      </trkpt>
      <trkpt lat="45.19354" lon="6.39476">
        <ele>2018.14</ele>
        <time>2013-12-23T12:09:25Z</time>
      </trkpt>
      <trkpt lat="45.19362" lon="6.39499">
        <ele>2015.46</ele>
        <time>2013-12-23T12:09:28Z</time>
      </trkpt>
      <trkpt lat="45.19369" lon="6.39531">
        <ele>2011.88</ele>
        <time>2013-12-23T12:09:32Z</time>
      </trkpt>
      <trkpt lat="45.19374" lon="6.39556">
        <ele>2006.84</ele>
        <time>2013-12-23T12:09:36Z</time>
      </trkpt>
      <trkpt lat="45.19382" lon="6.39585">
        <ele>2001.58</ele>
        <time>2013-12-23T12:09:49Z</time>
      </trkpt>
      <trkpt lat="45.19392" lon="6.39608">
        <ele>1996.99</ele>
        <time>2013-12-23T12:09:53Z</time>
      </trkpt>
      <trkpt lat="45.19402" lon="6.39633">
        <ele>1991.15</ele>
        <time>2013-12-23T12:09:58Z</time>
      </trkpt>
      <trkpt lat="45.19379" lon="6.39626">
        <ele>1990.56</ele>
        <time>2013-12-23T12:10:09Z</time>
      </trkpt>
      <trkpt lat="45.19359" lon="6.39623">
        <ele>1988.98</ele>
        <time>2013-12-23T12:10:12Z</time>
      </trkpt>
      <trkpt lat="45.19346" lon="6.39649">
        <ele>1984.72</ele>
        <time>2013-12-23T12:10:16Z</time>
      </trkpt>
      <trkpt lat="45.19339" lon="6.39682">
        <ele>1981.65</ele>
        <time>2013-12-23T12:10:20Z</time>
      </trkpt>
      <trkpt lat="45.19338" lon="6.3971">
        <ele>1978.92</ele>
        <time>2013-12-23T12:10:23Z</time>
      </trkpt>
      <trkpt lat="45.19339" lon="6.39738">
        <ele>1976.8</ele>
        <time>2013-12-23T12:10:26Z</time>
      </trkpt>
      <trkpt lat="45.19344" lon="6.3977">
        <ele>1971.98</ele>
        <time>2013-12-23T12:10:30Z</time>
      </trkpt>
      <trkpt lat="45.19343" lon="6.39799">
        <ele>1969.25</ele>
        <time>2013-12-23T12:10:33Z</time>
      </trkpt>
      <trkpt lat="45.19352" lon="6.39822">
        <ele>1965.86</ele>
        <time>2013-12-23T12:10:36Z</time>
      </trkpt>
      <trkpt lat="45.19378" lon="6.3983">
        <ele>1962.51</ele>
        <time>2013-12-23T12:10:39Z</time>
      </trkpt>
      <trkpt lat="45.19399" lon="6.39816">
        <ele>1956.97</ele>
        <time>2013-12-23T12:10:42Z</time>
      </trkpt>
      <trkpt lat="45.19418" lon="6.39818">
        <ele>1951.21</ele>
        <time>2013-12-23T12:10:49Z</time>
      </trkpt>
      <trkpt lat="45.19433" lon="6.39839">
        <ele>1947.85</ele>
        <time>2013-12-23T12:10:53Z</time>
      </trkpt>
      <trkpt lat="45.19448" lon="6.39864">
        <ele>1944.4</ele>
        <time>2013-12-23T12:10:57Z</time>
      </trkpt>
      <trkpt lat="45.19463" lon="6.39885">
        <ele>1942.01</ele>
        <time>2013-12-23T12:11:00Z</time>
      </trkpt>
      <trkpt lat="45.19479" lon="6.39905">
        <ele>1939.95</ele>
        <time>2013-12-23T12:11:03Z</time>
      </trkpt>
      <trkpt lat="45.19499" lon="6.39924">
        <ele>1936.97</ele>
        <time>2013-12-23T12:11:07Z</time>
      </trkpt>
      <trkpt lat="45.19506" lon="6.39955">
        <ele>1932.28</ele>
        <time>2013-12-23T12:11:11Z</time>
      </trkpt>
      <trkpt lat="45.19514" lon="6.39984">
        <ele>1930.35</ele>
        <time>2013-12-23T12:11:14Z</time>
      </trkpt>
      <trkpt lat="45.1952" lon="6.40009">
        <ele>1927.4</ele>
        <time>2013-12-23T12:11:17Z</time>
      </trkpt>
      <trkpt lat="45.19529" lon="6.40034">
        <ele>1920.01</ele>
        <time>2013-12-23T12:11:33Z</time>
      </trkpt>
      <trkpt lat="45.19536" lon="6.40068">
        <ele>1916.31</ele>
        <time>2013-12-23T12:11:37Z</time>
      </trkpt>
      <trkpt lat="45.19541" lon="6.40093">
        <ele>1913.43</ele>
        <time>2013-12-23T12:11:39Z</time>
      </trkpt>
      <trkpt lat="45.19547" lon="6.40121">
        <ele>1909.88</ele>
        <time>2013-12-23T12:11:41Z</time>
      </trkpt>
      <trkpt lat="45.19552" lon="6.40149">
        <ele>1905.87</ele>
        <time>2013-12-23T12:11:43Z</time>
      </trkpt>
      <trkpt lat="45.19557" lon="6.40174">
        <ele>1901.69</ele>
        <time>2013-12-23T12:11:45Z</time>
      </trkpt>
      <trkpt lat="45.19562" lon="6.40207">
        <ele>1896.81</ele>
        <time>2013-12-23T12:11:48Z</time>
      </trkpt>
      <trkpt lat="45.19568" lon="6.40239">
        <ele>1893.02</ele>
        <time>2013-12-23T12:11:51Z</time>
      </trkpt>
      <trkpt lat="45.19574" lon="6.40274">
        <ele>1889.19</ele>
        <time>2013-12-23T12:11:54Z</time>
      </trkpt>
      <trkpt lat="45.1958" lon="6.40301">
        <ele>1884.82</ele>
        <time>2013-12-23T12:11:57Z</time>
      </trkpt>
      <trkpt lat="45.19581" lon="6.40332">
        <ele>1879.59</ele>
        <time>2013-12-23T12:12:32Z</time>
      </trkpt>
      <trkpt lat="45.19585" lon="6.40368">
        <ele>1876.2</ele>
        <time>2013-12-23T12:12:36Z</time>
      </trkpt>
      <trkpt lat="45.19589" lon="6.40398">
        <ele>1872.03</ele>
        <time>2013-12-23T12:12:39Z</time>
      </trkpt>
      <trkpt lat="45.19594" lon="6.40433">
        <ele>1865.19</ele>
        <time>2013-12-23T12:12:42Z</time>
      </trkpt>
      <trkpt lat="45.19599" lon="6.40464">
        <ele>1859.84</ele>
        <time>2013-12-23T12:12:45Z</time>
      </trkpt>
      <trkpt lat="45.19603" lon="6.40494">
        <ele>1854.81</ele>
        <time>2013-12-23T12:12:48Z</time>
      </trkpt>
      <trkpt lat="45.19608" lon="6.40523">
        <ele>1849.18</ele>
        <time>2013-12-23T12:12:51Z</time>
      </trkpt>
      <trkpt lat="45.19614" lon="6.40552">
        <ele>1845.75</ele>
        <time>2013-12-23T12:12:54Z</time>
      </trkpt>
      <trkpt lat="45.19623" lon="6.40579">
        <ele>1841.79</ele>
        <time>2013-12-23T12:12:58Z</time>
      </trkpt>
      <trkpt lat="45.19636" lon="6.40597">
        <ele>1840.66</ele>
        <time>2013-12-23T12:13:02Z</time>
      </trkpt>
      <trkpt lat="45.1965" lon="6.40613">
        <ele>1836.53</ele>
        <time>2013-12-23T12:13:10Z</time>
      </trkpt>
      <trkpt lat="45.19635" lon="6.40632">
        <ele>1830.03</ele>
        <time>2013-12-23T12:13:36Z</time>
      </trkpt>
      <trkpt lat="45.1964" lon="6.40659">
        <ele>1827.52</ele>
        <time>2013-12-23T12:13:39Z</time>
      </trkpt>
      <trkpt lat="45.1965" lon="6.40685">
        <ele>1824.51</ele>
        <time>2013-12-23T12:13:42Z</time>
      </trkpt>
      <trkpt lat="45.19663" lon="6.40704">
        <ele>1821.97</ele>
        <time>2013-12-23T12:13:45Z</time>
      </trkpt>
      <trkpt lat="45.19678" lon="6.4072">
        <ele>1821.12</ele>
        <time>2013-12-23T12:13:49Z</time>
      </trkpt>
      <trkpt lat="45.19692" lon="6.40741">
        <ele>1820.42</ele>
        <time>2013-12-23T12:13:54Z</time>
      </trkpt>
      <trkpt lat="45.19705" lon="6.40759">
        <ele>1818.93</ele>
        <time>2013-12-23T12:13:59Z</time>
      </trkpt>
      <trkpt lat="45.19717" lon="6.40781">
        <ele>1818.15</ele>
        <time>2013-12-23T12:14:05Z</time>
      </trkpt>
      <trkpt lat="45.19726" lon="6.40809">
        <ele>1815.3</ele>
        <time>2013-12-23T12:14:11Z</time>
      </trkpt>
      <trkpt lat="45.19735" lon="6.40838">
        <ele>1813.82</ele>
        <time>2013-12-23T12:14:16Z</time>
      </trkpt>
      <trkpt lat="45.19744" lon="6.40861">
        <ele>1813.56</ele>
        <time>2013-12-23T12:14:20Z</time>
      </trkpt>
      <trkpt lat="45.19755" lon="6.40887">
        <ele>1812.13</ele>
        <time>2013-12-23T12:14:25Z</time>
      </trkpt>
      <trkpt lat="45.19767" lon="6.40912">
        <ele>1810.06</ele>
        <time>2013-12-23T12:14:31Z</time>
      </trkpt>
      <trkpt lat="45.19775" lon="6.40935">
        <ele>1809.7</ele>
        <time>2013-12-23T12:14:36Z</time>
      </trkpt>
      <trkpt lat="45.19787" lon="6.40958">
        <ele>1809.36</ele>
        <time>2013-12-23T12:14:41Z</time>
      </trkpt>
      <trkpt lat="45.19803" lon="6.40972">
        <ele>1809.57</ele>
        <time>2013-12-23T12:14:46Z</time>
      </trkpt>
      <trkpt lat="45.19821" lon="6.40988">
        <ele>1809.08</ele>
        <time>2013-12-23T12:14:52Z</time>
      </trkpt>
      <trkpt lat="45.19838" lon="6.41">
        <ele>1808.41</ele>
        <time>2013-12-23T12:14:57Z</time>
      </trkpt>
      <trkpt lat="45.19851" lon="6.41022">
        <ele>1805.87</ele>
        <time>2013-12-23T12:15:03Z</time>
      </trkpt>
      <trkpt lat="45.19864" lon="6.41047">
        <ele>1804</ele>
        <time>2013-12-23T12:15:09Z</time>
      </trkpt>
      <trkpt lat="45.19875" lon="6.41068">
        <ele>1800.86</ele>
        <time>2013-12-23T12:15:14Z</time>
      </trkpt>
      <trkpt lat="45.19892" lon="6.41086">
        <ele>1798.59</ele>
        <time>2013-12-23T12:15:21Z</time>
      </trkpt>
      <trkpt lat="45.19909" lon="6.41101">
        <ele>1799.05</ele>
        <time>2013-12-23T12:15:29Z</time>
      </trkpt>
      <trkpt lat="45.19926" lon="6.41114">
        <ele>1800.64</ele>
        <time>2013-12-23T12:15:37Z</time>
      </trkpt>
      <trkpt lat="45.19943" lon="6.41122">
        <ele>1804.46</ele>
        <time>2013-12-23T12:15:45Z</time>
      </trkpt>
      <trkpt lat="45.19962" lon="6.41131">
        <ele>1802.41</ele>
        <time>2013-12-23T12:15:53Z</time>
      </trkpt>
      <trkpt lat="45.19976" lon="6.41151">
        <ele>1798.19</ele>
        <time>2013-12-23T12:16:00Z</time>
      </trkpt>
      <trkpt lat="45.1999" lon="6.41167">
        <ele>1794.8</ele>
        <time>2013-12-23T12:16:07Z</time>
      </trkpt>
      <trkpt lat="45.20006" lon="6.41153">
        <ele>1794.23</ele>
        <time>2013-12-23T12:16:15Z</time>
      </trkpt>
      <trkpt lat="45.20017" lon="6.41132">
        <ele>1790.39</ele>
        <time>2013-12-23T12:16:25Z</time>
      </trkpt>
      <trkpt lat="45.20033" lon="6.41113">
        <ele>1789.03</ele>
        <time>2013-12-23T12:16:32Z</time>
      </trkpt>
      <trkpt lat="45.20051" lon="6.41101">
        <ele>1788.94</ele>
        <time>2013-12-23T12:16:48Z</time>
      </trkpt>
      <trkpt lat="45.20069" lon="6.41094">
        <ele>1789.21</ele>
        <time>2013-12-23T12:16:57Z</time>
      </trkpt>
      <trkpt lat="45.20088" lon="6.41097">
        <ele>1794.02</ele>
        <time>2013-12-23T12:17:05Z</time>
      </trkpt>
      <trkpt lat="45.20106" lon="6.41102">
        <ele>1793.73</ele>
        <time>2013-12-23T12:17:11Z</time>
      </trkpt>
      <trkpt lat="45.20126" lon="6.41111">
        <ele>1792.81</ele>
        <time>2013-12-23T12:17:16Z</time>
      </trkpt>
      <trkpt lat="45.20146" lon="6.41117">
        <ele>1792.58</ele>
        <time>2013-12-23T12:17:21Z</time>
      </trkpt>
      <trkpt lat="45.20168" lon="6.4112">
        <ele>1791.43</ele>
        <time>2013-12-23T12:17:26Z</time>
      </trkpt>
      <trkpt lat="45.20189" lon="6.41123">
        <ele>1788.98</ele>
        <time>2013-12-23T12:17:31Z</time>
      </trkpt>
      <trkpt lat="45.20207" lon="6.4113">
        <ele>1788.62</ele>
        <time>2013-12-23T12:17:38Z</time>
      </trkpt>
      <trkpt lat="45.20224" lon="6.41141">
        <ele>1787.03</ele>
        <time>2013-12-23T12:17:44Z</time>
      </trkpt>
      <trkpt lat="45.20239" lon="6.41156">
        <ele>1782.8</ele>
        <time>2013-12-23T12:17:49Z</time>
      </trkpt>
      <trkpt lat="45.20256" lon="6.41173">
        <ele>1779.33</ele>
        <time>2013-12-23T12:17:54Z</time>
      </trkpt>
      <trkpt lat="45.20276" lon="6.41185">
        <ele>1777.66</ele>
        <time>2013-12-23T12:17:59Z</time>
      </trkpt>
      <trkpt lat="45.20294" lon="6.41192">
        <ele>1778.37</ele>
        <time>2013-12-23T12:18:04Z</time>
      </trkpt>
      <trkpt lat="45.20313" lon="6.412">
        <ele>1777.68</ele>
        <time>2013-12-23T12:18:10Z</time>
      </trkpt>
      <trkpt lat="45.20328" lon="6.41213">
        <ele>1773.92</ele>
        <time>2013-12-23T12:18:15Z</time>
      </trkpt>
      <trkpt lat="45.2034" lon="6.41233">
        <ele>1770.77</ele>
        <time>2013-12-23T12:18:20Z</time>
      </trkpt>
      <trkpt lat="45.20352" lon="6.41257">
        <ele>1767.98</ele>
        <time>2013-12-23T12:18:25Z</time>
      </trkpt>
      <trkpt lat="45.20368" lon="6.4128">
        <ele>1767.7</ele>
        <time>2013-12-23T12:18:30Z</time>
      </trkpt>
      <trkpt lat="45.20385" lon="6.41297">
        <ele>1766.22</ele>
        <time>2013-12-23T12:18:34Z</time>
      </trkpt>
      <trkpt lat="45.20406" lon="6.41311">
        <ele>1763.89</ele>
        <time>2013-12-23T12:18:38Z</time>
      </trkpt>
      <trkpt lat="45.20425" lon="6.41327">
        <ele>1762.65</ele>
        <time>2013-12-23T12:18:42Z</time>
      </trkpt>
      <trkpt lat="45.20444" lon="6.41342">
        <ele>1760.75</ele>
        <time>2013-12-23T12:18:46Z</time>
      </trkpt>
      <trkpt lat="45.20463" lon="6.41354">
        <ele>1759.09</ele>
        <time>2013-12-23T12:18:50Z</time>
      </trkpt>
      <trkpt lat="45.20484" lon="6.41361">
        <ele>1757.96</ele>
        <time>2013-12-23T12:18:54Z</time>
      </trkpt>
      <trkpt lat="45.20507" lon="6.4137">
        <ele>1756.03</ele>
        <time>2013-12-23T12:18:58Z</time>
      </trkpt>
      <trkpt lat="45.20525" lon="6.41377">
        <ele>1754.32</ele>
        <time>2013-12-23T12:19:01Z</time>
      </trkpt>
      <trkpt lat="45.20548" lon="6.41384">
        <ele>1755.23</ele>
        <time>2013-12-23T12:19:05Z</time>
      </trkpt>
      <trkpt lat="45.20569" lon="6.41398">
        <ele>1749.14</ele>
        <time>2013-12-23T12:19:09Z</time>
      </trkpt>
      <trkpt lat="45.20588" lon="6.41409">
        <ele>1743.94</ele>
        <time>2013-12-23T12:19:13Z</time>
      </trkpt>
      <trkpt lat="45.20612" lon="6.41414">
        <ele>1743.56</ele>
        <time>2013-12-23T12:19:17Z</time>
      </trkpt>
      <trkpt lat="45.20634" lon="6.41418">
        <ele>1744.78</ele>
        <time>2013-12-23T12:19:21Z</time>
      </trkpt>
      <trkpt lat="45.20655" lon="6.41425">
        <ele>1741.68</ele>
        <time>2013-12-23T12:19:25Z</time>
      </trkpt>
      <trkpt lat="45.20674" lon="6.41433">
        <ele>1739.69</ele>
        <time>2013-12-23T12:19:29Z</time>
      </trkpt>
      <trkpt lat="45.20691" lon="6.41447">
        <ele>1735.22</ele>
        <time>2013-12-23T12:19:33Z</time>
      </trkpt>
      <trkpt lat="45.20706" lon="6.41465">
        <ele>1726.98</ele>
        <time>2013-12-23T12:19:39Z</time>
      </trkpt>
      <trkpt lat="45.20721" lon="6.41485">
        <ele>1723.12</ele>
        <time>2013-12-23T12:19:48Z</time>
      </trkpt>
      <trkpt lat="45.20735" lon="6.41504">
        <ele>1722.95</ele>
        <time>2013-12-23T12:19:54Z</time>
      </trkpt>
      <trkpt lat="45.20749" lon="6.41523">
        <ele>1721.55</ele>
        <time>2013-12-23T12:20:03Z</time>
      </trkpt>
      <trkpt lat="45.2076" lon="6.41547">
        <ele>1719.82</ele>
        <time>2013-12-23T12:20:12Z</time>
      </trkpt>
      <trkpt lat="45.20763" lon="6.41577">
        <ele>1719.76</ele>
        <time>2013-12-23T12:20:18Z</time>
      </trkpt>
      <trkpt lat="45.20766" lon="6.41603">
        <ele>1718.07</ele>
        <time>2013-12-23T12:20:23Z</time>
      </trkpt>
      <trkpt lat="45.20756" lon="6.41626">
        <ele>1713.87</ele>
        <time>2013-12-23T12:20:28Z</time>
      </trkpt>
      <trkpt lat="45.2074" lon="6.41639">
        <ele>1710.5</ele>
        <time>2013-12-23T12:20:30Z</time>
      </trkpt>
      <trkpt lat="45.20732" lon="6.41662">
        <ele>1706.91</ele>
        <time>2013-12-23T12:20:32Z</time>
      </trkpt>
      <trkpt lat="45.20715" lon="6.41687">
        <ele>1701.69</ele>
        <time>2013-12-23T12:20:35Z</time>
      </trkpt>
      <trkpt lat="45.20697" lon="6.41702">
        <ele>1696.22</ele>
        <time>2013-12-23T12:20:38Z</time>
      </trkpt>
      <trkpt lat="45.20676" lon="6.41717">
        <ele>1689.02</ele>
        <time>2013-12-23T12:20:41Z</time>
      </trkpt>
      <trkpt lat="45.2066" lon="6.41744">
        <ele>1679.65</ele>
        <time>2013-12-23T12:20:45Z</time>
      </trkpt>
      <trkpt lat="45.20647" lon="6.41778">
        <ele>1672.24</ele>
        <time>2013-12-23T12:20:48Z</time>
      </trkpt>
      <trkpt lat="45.20641" lon="6.4181">
        <ele>1666.52</ele>
        <time>2013-12-23T12:20:50Z</time>
      </trkpt>
      <trkpt lat="45.20619" lon="6.41822">
        <ele>1656.63</ele>
        <time>2013-12-23T12:20:53Z</time>
      </trkpt>
      <trkpt lat="45.20607" lon="6.41851">
        <ele>1648.38</ele>
        <time>2013-12-23T12:20:56Z</time>
      </trkpt>
      <trkpt lat="45.20595" lon="6.41872">
        <ele>1639.11</ele>
        <time>2013-12-23T12:20:59Z</time>
      </trkpt>
      <trkpt lat="45.20574" lon="6.41879">
        <ele>1622.49</ele>
        <time>2013-12-23T12:21:04Z</time>
      </trkpt>
    </trkseg>
  </trk>
</gpx>